sensor_id;sensor_type;location;lat;lon;timestamp;P1;durP1;ratioP1;P2;durP2;ratioP2
74922;SDS011;64715;44.760;37.678;2022-11-20T00:00:54;45.60;;;12.35;;
74922;SDS011;64715;44.760;37.678;2022-11-20T00:01:55;46.55;;;11.90;;
74922;SDS011;64715;44.760;37.678;2022-11-20T00:02:56;44.45;;;11.65;;
74922;SDS011;64715;44.760;37.678;2022-11-20T00:03:57;49.70;;;12.70;;
74922;SDS011;64715;44.760;37.678;2022-11-20T00:04:59;45.13;;;12.70;;
74922;SDS011;64715;44.760;37.678;2022-11-20T00:06:03;43.30;;;12.15;;
74922;SDS011;64715;44.760;37.678;2022-11-20T00:07:09;47.23;;;11.87;;
74922;SDS011;64715;44.760;37.678;2022-11-20T00:08:10;49.17;;;12.40;;
74922;SDS011;64715;44.760;37.678;2022-11-20T00:09:11;49.67;;;12.32;;
74922;SDS011;64715;44.760;37.678;2022-11-20T00:10:12;48.55;;;11.95;;
74922;SDS011;64715;44.760;37.678;2022-11-20T00:11:14;43.65;;;12.45;;
74922;SDS011;64715;44.760;37.678;2022-11-20T00:12:20;43.58;;;11.45;;
74922;SDS011;64715;44.760;37.678;2022-11-20T00:13:21;45.60;;;11.82;;
74922;SDS011;64715;44.760;37.678;2022-11-20T00:14:22;49.15;;;11.80;;
74922;SDS011;64715;44.760;37.678;2022-11-20T00:15:23;47.22;;;12.07;;
74922;SDS011;64715;44.760;37.678;2022-11-20T00:16:25;49.40;;;12.63;;
74922;SDS011;64715;44.760;37.678;2022-11-20T00:17:28;53.05;;;12.75;;
74922;SDS011;64715;44.760;37.678;2022-11-20T00:18:29;45.25;;;13.30;;
74922;SDS011;64715;44.760;37.678;2022-11-20T00:19:31;50.15;;;12.55;;
74922;SDS011;64715;44.760;37.678;2022-11-20T00:20:32;41.90;;;12.77;;
74922;SDS011;64715;44.760;37.678;2022-11-20T00:21:33;54.88;;;13.05;;
74922;SDS011;64715;44.760;37.678;2022-11-20T00:22:35;43.03;;;12.18;;
74922;SDS011;64715;44.760;37.678;2022-11-20T00:23:36;49.60;;;12.80;;
74922;SDS011;64715;44.760;37.678;2022-11-20T00:24:37;44.85;;;12.48;;
74922;SDS011;64715;44.760;37.678;2022-11-20T00:25:38;48.92;;;12.88;;
74922;SDS011;64715;44.760;37.678;2022-11-20T00:26:39;57.03;;;13.00;;
74922;SDS011;64715;44.760;37.678;2022-11-20T00:27:40;41.88;;;12.10;;
74922;SDS011;64715;44.760;37.678;2022-11-20T00:28:42;50.75;;;11.63;;
74922;SDS011;64715;44.760;37.678;2022-11-20T00:29:44;50.65;;;12.95;;
74922;SDS011;64715;44.760;37.678;2022-11-20T00:30:45;47.93;;;14.23;;
74922;SDS011;64715;44.760;37.678;2022-11-20T00:31:46;47.50;;;13.25;;
74922;SDS011;64715;44.760;37.678;2022-11-20T00:32:47;58.35;;;12.38;;
74922;SDS011;64715;44.760;37.678;2022-11-20T00:33:48;44.58;;;12.38;;
74922;SDS011;64715;44.760;37.678;2022-11-20T00:34:49;43.42;;;11.70;;
74922;SDS011;64715;44.760;37.678;2022-11-20T00:35:50;46.47;;;12.73;;
74922;SDS011;64715;44.760;37.678;2022-11-20T00:36:51;37.73;;;11.47;;
74922;SDS011;64715;44.760;37.678;2022-11-20T00:37:52;45.30;;;11.85;;
74922;SDS011;64715;44.760;37.678;2022-11-20T00:38:53;42.13;;;11.88;;
74922;SDS011;64715;44.760;37.678;2022-11-20T00:39:56;43.28;;;11.80;;
74922;SDS011;64715;44.760;37.678;2022-11-20T00:40:57;41.42;;;11.45;;
74922;SDS011;64715;44.760;37.678;2022-11-20T00:41:59;44.25;;;11.85;;
74922;SDS011;64715;44.760;37.678;2022-11-20T00:43:00;46.40;;;11.30;;
74922;SDS011;64715;44.760;37.678;2022-11-20T00:44:01;42.00;;;12.20;;
74922;SDS011;64715;44.760;37.678;2022-11-20T00:45:02;32.20;;;11.27;;
74922;SDS011;64715;44.760;37.678;2022-11-20T00:46:04;40.53;;;11.90;;
74922;SDS011;64715;44.760;37.678;2022-11-20T00:47:10;41.08;;;11.77;;
74922;SDS011;64715;44.760;37.678;2022-11-20T00:48:11;42.85;;;12.20;;
74922;SDS011;64715;44.760;37.678;2022-11-20T00:49:12;40.72;;;11.23;;
74922;SDS011;64715;44.760;37.678;2022-11-20T00:50:13;40.37;;;11.63;;
74922;SDS011;64715;44.760;37.678;2022-11-20T00:51:15;38.93;;;11.63;;
74922;SDS011;64715;44.760;37.678;2022-11-20T00:52:19;43.55;;;11.43;;
74922;SDS011;64715;44.760;37.678;2022-11-20T00:53:20;42.03;;;11.20;;
74922;SDS011;64715;44.760;37.678;2022-11-20T00:54:22;40.88;;;11.18;;
74922;SDS011;64715;44.760;37.678;2022-11-20T00:55:23;37.88;;;11.82;;
74922;SDS011;64715;44.760;37.678;2022-11-20T00:56:24;47.50;;;11.85;;
74922;SDS011;64715;44.760;37.678;2022-11-20T00:57:25;44.10;;;11.73;;
74922;SDS011;64715;44.760;37.678;2022-11-20T00:58:45;44.95;;;12.57;;
74922;SDS011;64715;44.760;37.678;2022-11-20T00:59:47;40.83;;;11.90;;
74922;SDS011;64715;44.760;37.678;2022-11-20T01:00:48;41.47;;;11.80;;
74922;SDS011;64715;44.760;37.678;2022-11-20T01:01:50;40.17;;;11.02;;
74922;SDS011;64715;44.760;37.678;2022-11-20T01:02:50;47.17;;;11.57;;
74922;SDS011;64715;44.760;37.678;2022-11-20T01:03:52;39.72;;;11.05;;
74922;SDS011;64715;44.760;37.678;2022-11-20T01:04:54;39.35;;;11.63;;
74922;SDS011;64715;44.760;37.678;2022-11-20T01:05:58;42.67;;;11.40;;
74922;SDS011;64715;44.760;37.678;2022-11-20T01:07:01;35.67;;;11.03;;
74922;SDS011;64715;44.760;37.678;2022-11-20T01:08:02;37.08;;;10.73;;
74922;SDS011;64715;44.760;37.678;2022-11-20T01:09:07;35.22;;;10.50;;
74922;SDS011;64715;44.760;37.678;2022-11-20T01:10:13;35.17;;;10.30;;
74922;SDS011;64715;44.760;37.678;2022-11-20T01:11:15;39.15;;;10.65;;
74922;SDS011;64715;44.760;37.678;2022-11-20T01:12:20;34.05;;;10.52;;
74922;SDS011;64715;44.760;37.678;2022-11-20T01:13:21;34.97;;;11.05;;
74922;SDS011;64715;44.760;37.678;2022-11-20T01:14:37;34.10;;;10.18;;
74922;SDS011;64715;44.760;37.678;2022-11-20T01:15:38;34.00;;;10.07;;
74922;SDS011;64715;44.760;37.678;2022-11-20T01:16:42;37.83;;;10.45;;
74922;SDS011;64715;44.760;37.678;2022-11-20T01:17:45;31.67;;;10.90;;
74922;SDS011;64715;44.760;37.678;2022-11-20T01:18:47;34.33;;;10.98;;
74922;SDS011;64715;44.760;37.678;2022-11-20T01:19:50;34.60;;;9.02;;
74922;SDS011;64715;44.760;37.678;2022-11-20T01:20:51;31.13;;;9.27;;
74922;SDS011;64715;44.760;37.678;2022-11-20T01:21:53;25.13;;;8.70;;
74922;SDS011;64715;44.760;37.678;2022-11-20T01:22:55;26.23;;;8.50;;
74922;SDS011;64715;44.760;37.678;2022-11-20T01:23:56;26.97;;;8.37;;
74922;SDS011;64715;44.760;37.678;2022-11-20T01:24:57;27.33;;;8.43;;
74922;SDS011;64715;44.760;37.678;2022-11-20T01:26:05;28.25;;;8.43;;
74922;SDS011;64715;44.760;37.678;2022-11-20T01:27:09;29.65;;;8.70;;
74922;SDS011;64715;44.760;37.678;2022-11-20T01:28:09;28.98;;;8.68;;
74922;SDS011;64715;44.760;37.678;2022-11-20T01:29:15;25.58;;;8.73;;
74922;SDS011;64715;44.760;37.678;2022-11-20T01:30:21;26.67;;;9.48;;
74922;SDS011;64715;44.760;37.678;2022-11-20T01:31:23;26.60;;;9.43;;
74922;SDS011;64715;44.760;37.678;2022-11-20T01:32:25;33.90;;;9.35;;
74922;SDS011;64715;44.760;37.678;2022-11-20T01:33:27;33.55;;;10.98;;
74922;SDS011;64715;44.760;37.678;2022-11-20T01:34:28;36.50;;;10.68;;
74922;SDS011;64715;44.760;37.678;2022-11-20T01:35:29;34.88;;;11.43;;
74922;SDS011;64715;44.760;37.678;2022-11-20T01:36:31;41.28;;;12.27;;
74922;SDS011;64715;44.760;37.678;2022-11-20T01:37:33;40.90;;;10.67;;
74922;SDS011;64715;44.760;37.678;2022-11-20T01:38:34;38.70;;;11.47;;
74922;SDS011;64715;44.760;37.678;2022-11-20T01:39:35;44.13;;;11.95;;
74922;SDS011;64715;44.760;37.678;2022-11-20T01:40:36;38.85;;;11.80;;
74922;SDS011;64715;44.760;37.678;2022-11-20T01:41:37;51.33;;;12.43;;
74922;SDS011;64715;44.760;37.678;2022-11-20T01:43:06;35.92;;;12.25;;
74922;SDS011;64715;44.760;37.678;2022-11-20T01:44:40;47.83;;;12.52;;
74922;SDS011;64715;44.760;37.678;2022-11-20T01:46:05;43.03;;;12.57;;
74922;SDS011;64715;44.760;37.678;2022-11-20T01:49:58;41.78;;;11.60;;
74922;SDS011;64715;44.760;37.678;2022-11-20T01:51:07;34.45;;;12.35;;
74922;SDS011;64715;44.760;37.678;2022-11-20T01:52:18;38.47;;;12.25;;
74922;SDS011;64715;44.760;37.678;2022-11-20T01:53:24;38.08;;;10.63;;
74922;SDS011;64715;44.760;37.678;2022-11-20T01:54:30;41.55;;;11.48;;
74922;SDS011;64715;44.760;37.678;2022-11-20T01:55:39;37.13;;;10.73;;
74922;SDS011;64715;44.760;37.678;2022-11-20T01:56:44;34.08;;;11.30;;
74922;SDS011;64715;44.760;37.678;2022-11-20T01:57:47;44.08;;;11.30;;
74922;SDS011;64715;44.760;37.678;2022-11-20T01:58:51;36.57;;;10.67;;
74922;SDS011;64715;44.760;37.678;2022-11-20T01:59:55;37.50;;;11.13;;
74922;SDS011;64715;44.760;37.678;2022-11-20T02:01:01;38.75;;;10.35;;
74922;SDS011;64715;44.760;37.678;2022-11-20T02:02:02;31.30;;;10.77;;
74922;SDS011;64715;44.760;37.678;2022-11-20T02:03:09;34.92;;;10.38;;
74922;SDS011;64715;44.760;37.678;2022-11-20T02:04:13;39.92;;;11.30;;
74922;SDS011;64715;44.760;37.678;2022-11-20T02:05:32;33.08;;;10.70;;
74922;SDS011;64715;44.760;37.678;2022-11-20T02:06:46;28.73;;;10.32;;
74922;SDS011;64715;44.760;37.678;2022-11-20T02:08:00;37.67;;;9.68;;
74922;SDS011;64715;44.760;37.678;2022-11-20T02:09:04;31.67;;;10.00;;
74922;SDS011;64715;44.760;37.678;2022-11-20T02:10:05;33.60;;;9.97;;
74922;SDS011;64715;44.760;37.678;2022-11-20T02:11:06;34.85;;;9.55;;
74922;SDS011;64715;44.760;37.678;2022-11-20T02:12:07;33.85;;;10.90;;
74922;SDS011;64715;44.760;37.678;2022-11-20T02:13:28;31.05;;;10.38;;
74922;SDS011;64715;44.760;37.678;2022-11-20T02:14:45;33.53;;;10.15;;
74922;SDS011;64715;44.760;37.678;2022-11-20T02:15:46;32.15;;;10.70;;
74922;SDS011;64715;44.760;37.678;2022-11-20T02:16:48;34.38;;;11.07;;
74922;SDS011;64715;44.760;37.678;2022-11-20T02:17:50;33.67;;;9.70;;
74922;SDS011;64715;44.760;37.678;2022-11-20T02:18:51;39.85;;;10.25;;
74922;SDS011;64715;44.760;37.678;2022-11-20T02:19:53;32.03;;;9.90;;
74922;SDS011;64715;44.760;37.678;2022-11-20T02:22:46;36.38;;;9.85;;
74922;SDS011;64715;44.760;37.678;2022-11-20T02:25:04;32.67;;;10.10;;
74922;SDS011;64715;44.760;37.678;2022-11-20T02:26:09;38.65;;;10.82;;
74922;SDS011;64715;44.760;37.678;2022-11-20T02:27:14;34.17;;;10.63;;
74922;SDS011;64715;44.760;37.678;2022-11-20T02:28:16;31.75;;;10.07;;
74922;SDS011;64715;44.760;37.678;2022-11-20T02:29:51;34.83;;;11.02;;
74922;SDS011;64715;44.760;37.678;2022-11-20T02:30:48;34.72;;;10.45;;
74922;SDS011;64715;44.760;37.678;2022-11-20T02:31:49;33.57;;;11.07;;
74922;SDS011;64715;44.760;37.678;2022-11-20T02:32:50;39.17;;;11.43;;
74922;SDS011;64715;44.760;37.678;2022-11-20T02:33:55;38.55;;;10.90;;
74922;SDS011;64715;44.760;37.678;2022-11-20T02:34:57;37.53;;;11.30;;
74922;SDS011;64715;44.760;37.678;2022-11-20T02:36:07;33.25;;;10.05;;
74922;SDS011;64715;44.760;37.678;2022-11-20T02:37:12;38.40;;;10.55;;
74922;SDS011;64715;44.760;37.678;2022-11-20T02:38:14;39.72;;;10.50;;
74922;SDS011;64715;44.760;37.678;2022-11-20T02:39:15;30.33;;;10.27;;
74922;SDS011;64715;44.760;37.678;2022-11-20T02:40:19;27.60;;;10.10;;
74922;SDS011;64715;44.760;37.678;2022-11-20T02:41:20;35.33;;;10.17;;
74922;SDS011;64715;44.760;37.678;2022-11-20T02:42:21;30.13;;;10.00;;
74922;SDS011;64715;44.760;37.678;2022-11-20T02:43:22;34.50;;;10.63;;
74922;SDS011;64715;44.760;37.678;2022-11-20T02:44:23;27.75;;;9.60;;
74922;SDS011;64715;44.760;37.678;2022-11-20T02:45:25;27.13;;;9.40;;
74922;SDS011;64715;44.760;37.678;2022-11-20T02:46:26;30.75;;;10.73;;
74922;SDS011;64715;44.760;37.678;2022-11-20T02:47:27;35.80;;;10.32;;
74922;SDS011;64715;44.760;37.678;2022-11-20T02:48:28;38.95;;;11.00;;
74922;SDS011;64715;44.760;37.678;2022-11-20T02:49:29;38.47;;;10.00;;
74922;SDS011;64715;44.760;37.678;2022-11-20T02:50:30;32.90;;;10.57;;
74922;SDS011;64715;44.760;37.678;2022-11-20T02:51:31;34.15;;;10.43;;
74922;SDS011;64715;44.760;37.678;2022-11-20T02:52:32;31.48;;;11.15;;
74922;SDS011;64715;44.760;37.678;2022-11-20T02:53:33;33.58;;;10.45;;
74922;SDS011;64715;44.760;37.678;2022-11-20T02:54:34;32.08;;;10.90;;
74922;SDS011;64715;44.760;37.678;2022-11-20T02:55:35;36.70;;;10.90;;
74922;SDS011;64715;44.760;37.678;2022-11-20T02:56:37;35.07;;;10.23;;
74922;SDS011;64715;44.760;37.678;2022-11-20T02:57:39;34.05;;;10.82;;
74922;SDS011;64715;44.760;37.678;2022-11-20T02:58:40;33.05;;;10.75;;
74922;SDS011;64715;44.760;37.678;2022-11-20T02:59:41;37.30;;;11.50;;
74922;SDS011;64715;44.760;37.678;2022-11-20T03:00:42;33.10;;;10.55;;
74922;SDS011;64715;44.760;37.678;2022-11-20T03:01:43;29.95;;;10.07;;
74922;SDS011;64715;44.760;37.678;2022-11-20T03:02:44;31.55;;;10.55;;
74922;SDS011;64715;44.760;37.678;2022-11-20T03:03:45;30.48;;;10.38;;
74922;SDS011;64715;44.760;37.678;2022-11-20T03:04:48;34.40;;;10.70;;
74922;SDS011;64715;44.760;37.678;2022-11-20T03:05:49;35.87;;;11.00;;
74922;SDS011;64715;44.760;37.678;2022-11-20T03:06:50;32.58;;;11.65;;
74922;SDS011;64715;44.760;37.678;2022-11-20T03:07:51;32.63;;;12.18;;
74922;SDS011;64715;44.760;37.678;2022-11-20T03:08:52;34.75;;;12.25;;
74922;SDS011;64715;44.760;37.678;2022-11-20T03:09:53;34.28;;;12.45;;
74922;SDS011;64715;44.760;37.678;2022-11-20T03:10:54;34.40;;;11.98;;
74922;SDS011;64715;44.760;37.678;2022-11-20T03:11:55;38.70;;;11.00;;
74922;SDS011;64715;44.760;37.678;2022-11-20T03:12:56;37.78;;;11.85;;
74922;SDS011;64715;44.760;37.678;2022-11-20T03:13:57;33.72;;;11.07;;
74922;SDS011;64715;44.760;37.678;2022-11-20T03:15:02;31.15;;;11.40;;
74922;SDS011;64715;44.760;37.678;2022-11-20T03:16:05;38.58;;;11.45;;
74922;SDS011;64715;44.760;37.678;2022-11-20T03:17:11;29.85;;;10.68;;
74922;SDS011;64715;44.760;37.678;2022-11-20T03:18:12;29.38;;;9.55;;
74922;SDS011;64715;44.760;37.678;2022-11-20T03:19:14;30.23;;;10.25;;
74922;SDS011;64715;44.760;37.678;2022-11-20T03:20:15;32.72;;;10.10;;
74922;SDS011;64715;44.760;37.678;2022-11-20T03:21:16;32.77;;;10.53;;
74922;SDS011;64715;44.760;37.678;2022-11-20T03:22:17;34.60;;;11.90;;
74922;SDS011;64715;44.760;37.678;2022-11-20T03:23:18;34.72;;;10.88;;
74922;SDS011;64715;44.760;37.678;2022-11-20T03:24:19;31.98;;;10.07;;
74922;SDS011;64715;44.760;37.678;2022-11-20T03:25:20;30.75;;;10.65;;
74922;SDS011;64715;44.760;37.678;2022-11-20T03:26:23;39.40;;;10.77;;
74922;SDS011;64715;44.760;37.678;2022-11-20T03:27:25;38.65;;;11.85;;
74922;SDS011;64715;44.760;37.678;2022-11-20T03:28:26;33.07;;;11.23;;
74922;SDS011;64715;44.760;37.678;2022-11-20T03:29:27;30.83;;;10.20;;
74922;SDS011;64715;44.760;37.678;2022-11-20T03:30:28;36.33;;;10.20;;
74922;SDS011;64715;44.760;37.678;2022-11-20T03:31:30;40.00;;;10.98;;
74922;SDS011;64715;44.760;37.678;2022-11-20T03:32:41;33.70;;;10.50;;
74922;SDS011;64715;44.760;37.678;2022-11-20T03:33:42;33.45;;;11.25;;
74922;SDS011;64715;44.760;37.678;2022-11-20T03:34:45;35.58;;;11.15;;
74922;SDS011;64715;44.760;37.678;2022-11-20T03:35:46;33.27;;;10.80;;
74922;SDS011;64715;44.760;37.678;2022-11-20T03:36:47;33.20;;;10.20;;
74922;SDS011;64715;44.760;37.678;2022-11-20T03:37:48;37.03;;;10.95;;
74922;SDS011;64715;44.760;37.678;2022-11-20T03:38:49;30.98;;;10.98;;
74922;SDS011;64715;44.760;37.678;2022-11-20T03:39:50;40.25;;;12.23;;
74922;SDS011;64715;44.760;37.678;2022-11-20T03:40:51;36.15;;;11.63;;
74922;SDS011;64715;44.760;37.678;2022-11-20T03:41:57;41.40;;;12.38;;
74922;SDS011;64715;44.760;37.678;2022-11-20T03:42:58;44.63;;;12.73;;
74922;SDS011;64715;44.760;37.678;2022-11-20T03:44:00;48.83;;;13.40;;
74922;SDS011;64715;44.760;37.678;2022-11-20T03:45:03;40.25;;;12.70;;
74922;SDS011;64715;44.760;37.678;2022-11-20T03:46:05;40.88;;;13.00;;
74922;SDS011;64715;44.760;37.678;2022-11-20T03:47:07;42.63;;;13.85;;
74922;SDS011;64715;44.760;37.678;2022-11-20T03:48:08;38.45;;;12.55;;
74922;SDS011;64715;44.760;37.678;2022-11-20T03:49:08;39.22;;;13.32;;
74922;SDS011;64715;44.760;37.678;2022-11-20T03:50:10;41.20;;;12.77;;
74922;SDS011;64715;44.760;37.678;2022-11-20T03:51:16;41.05;;;12.68;;
74922;SDS011;64715;44.760;37.678;2022-11-20T03:52:19;38.40;;;12.38;;
74922;SDS011;64715;44.760;37.678;2022-11-20T03:53:20;39.85;;;12.35;;
74922;SDS011;64715;44.760;37.678;2022-11-20T03:54:21;41.95;;;12.90;;
74922;SDS011;64715;44.760;37.678;2022-11-20T03:55:22;32.47;;;12.02;;
74922;SDS011;64715;44.760;37.678;2022-11-20T03:56:24;40.50;;;13.43;;
74922;SDS011;64715;44.760;37.678;2022-11-20T03:57:27;38.40;;;12.20;;
74922;SDS011;64715;44.760;37.678;2022-11-20T03:58:28;35.73;;;12.03;;
74922;SDS011;64715;44.760;37.678;2022-11-20T03:59:30;42.72;;;12.68;;
74922;SDS011;64715;44.760;37.678;2022-11-20T04:00:31;40.15;;;13.25;;
74922;SDS011;64715;44.760;37.678;2022-11-20T04:01:33;35.35;;;12.65;;
74922;SDS011;64715;44.760;37.678;2022-11-20T04:02:36;37.97;;;12.90;;
74922;SDS011;64715;44.760;37.678;2022-11-20T04:03:37;32.88;;;12.32;;
74922;SDS011;64715;44.760;37.678;2022-11-20T04:04:39;37.37;;;12.40;;
74922;SDS011;64715;44.760;37.678;2022-11-20T04:05:40;40.90;;;13.27;;
74922;SDS011;64715;44.760;37.678;2022-11-20T04:06:41;36.70;;;12.63;;
74922;SDS011;64715;44.760;37.678;2022-11-20T04:07:44;37.53;;;12.27;;
74922;SDS011;64715;44.760;37.678;2022-11-20T04:08:45;35.42;;;12.95;;
74922;SDS011;64715;44.760;37.678;2022-11-20T04:09:47;41.85;;;13.07;;
74922;SDS011;64715;44.760;37.678;2022-11-20T04:10:48;37.15;;;12.82;;
74922;SDS011;64715;44.760;37.678;2022-11-20T04:11:49;41.40;;;13.18;;
74922;SDS011;64715;44.760;37.678;2022-11-20T04:12:50;35.20;;;12.63;;
74922;SDS011;64715;44.760;37.678;2022-11-20T04:13:52;39.55;;;12.23;;
74922;SDS011;64715;44.760;37.678;2022-11-20T04:14:55;33.72;;;12.63;;
74922;SDS011;64715;44.760;37.678;2022-11-20T04:15:58;32.47;;;11.40;;
74922;SDS011;64715;44.760;37.678;2022-11-20T04:16:59;37.38;;;11.80;;
74922;SDS011;64715;44.760;37.678;2022-11-20T04:18:00;32.83;;;12.25;;
74922;SDS011;64715;44.760;37.678;2022-11-20T04:19:01;40.93;;;12.63;;
74922;SDS011;64715;44.760;37.678;2022-11-20T04:20:04;39.13;;;12.45;;
74922;SDS011;64715;44.760;37.678;2022-11-20T04:21:06;35.10;;;11.68;;
74922;SDS011;64715;44.760;37.678;2022-11-20T04:22:08;32.92;;;11.32;;
74922;SDS011;64715;44.760;37.678;2022-11-20T04:23:09;32.92;;;11.57;;
74922;SDS011;64715;44.760;37.678;2022-11-20T04:24:10;36.65;;;12.18;;
74922;SDS011;64715;44.760;37.678;2022-11-20T04:25:11;31.58;;;11.10;;
74922;SDS011;64715;44.760;37.678;2022-11-20T04:26:12;30.80;;;11.30;;
74922;SDS011;64715;44.760;37.678;2022-11-20T04:27:14;30.00;;;11.32;;
74922;SDS011;64715;44.760;37.678;2022-11-20T04:28:15;34.33;;;10.98;;
74922;SDS011;64715;44.760;37.678;2022-11-20T04:29:15;30.67;;;11.65;;
74922;SDS011;64715;44.760;37.678;2022-11-20T04:30:17;29.92;;;10.70;;
74922;SDS011;64715;44.760;37.678;2022-11-20T04:31:20;27.05;;;10.70;;
74922;SDS011;64715;44.760;37.678;2022-11-20T04:32:22;29.95;;;11.52;;
74922;SDS011;64715;44.760;37.678;2022-11-20T04:33:23;30.70;;;10.93;;
74922;SDS011;64715;44.760;37.678;2022-11-20T04:34:24;39.08;;;20.17;;
74922;SDS011;64715;44.760;37.678;2022-11-20T04:35:25;31.80;;;11.30;;
74922;SDS011;64715;44.760;37.678;2022-11-20T04:36:26;30.77;;;11.52;;
74922;SDS011;64715;44.760;37.678;2022-11-20T04:37:29;28.73;;;11.80;;
74922;SDS011;64715;44.760;37.678;2022-11-20T04:38:30;35.30;;;12.07;;
74922;SDS011;64715;44.760;37.678;2022-11-20T04:39:31;30.53;;;11.20;;
74922;SDS011;64715;44.760;37.678;2022-11-20T04:40:32;29.03;;;11.37;;
74922;SDS011;64715;44.760;37.678;2022-11-20T04:41:35;26.30;;;11.48;;
74922;SDS011;64715;44.760;37.678;2022-11-20T04:42:36;33.70;;;11.38;;
74922;SDS011;64715;44.760;37.678;2022-11-20T04:43:37;28.42;;;10.82;;
74922;SDS011;64715;44.760;37.678;2022-11-20T04:44:38;34.08;;;12.10;;
74922;SDS011;64715;44.760;37.678;2022-11-20T04:45:39;30.80;;;12.23;;
74922;SDS011;64715;44.760;37.678;2022-11-20T04:46:41;29.52;;;11.20;;
74922;SDS011;64715;44.760;37.678;2022-11-20T04:47:42;28.88;;;11.68;;
74922;SDS011;64715;44.760;37.678;2022-11-20T04:48:43;34.37;;;11.20;;
74922;SDS011;64715;44.760;37.678;2022-11-20T04:49:44;28.38;;;11.52;;
74922;SDS011;64715;44.760;37.678;2022-11-20T04:50:45;29.65;;;12.43;;
74922;SDS011;64715;44.760;37.678;2022-11-20T04:51:46;35.70;;;14.90;;
74922;SDS011;64715;44.760;37.678;2022-11-20T04:52:47;30.20;;;11.35;;
74922;SDS011;64715;44.760;37.678;2022-11-20T04:53:48;34.60;;;12.20;;
74922;SDS011;64715;44.760;37.678;2022-11-20T04:54:49;28.25;;;11.32;;
74922;SDS011;64715;44.760;37.678;2022-11-20T04:55:58;38.17;;;12.52;;
74922;SDS011;64715;44.760;37.678;2022-11-20T04:57:03;34.22;;;12.07;;
74922;SDS011;64715;44.760;37.678;2022-11-20T04:58:05;33.13;;;11.70;;
74922;SDS011;64715;44.760;37.678;2022-11-20T04:59:06;37.70;;;12.02;;
74922;SDS011;64715;44.760;37.678;2022-11-20T05:00:07;32.05;;;12.68;;
74922;SDS011;64715;44.760;37.678;2022-11-20T05:01:13;35.10;;;14.45;;
74922;SDS011;64715;44.760;37.678;2022-11-20T05:02:15;31.92;;;12.38;;
74922;SDS011;64715;44.760;37.678;2022-11-20T05:03:16;39.07;;;12.70;;
74922;SDS011;64715;44.760;37.678;2022-11-20T05:04:17;32.83;;;12.07;;
74922;SDS011;64715;44.760;37.678;2022-11-20T05:05:18;36.00;;;11.82;;
74922;SDS011;64715;44.760;37.678;2022-11-20T05:06:21;31.35;;;11.50;;
74922;SDS011;64715;44.760;37.678;2022-11-20T05:07:22;31.40;;;12.18;;
74922;SDS011;64715;44.760;37.678;2022-11-20T05:08:23;30.83;;;12.02;;
74922;SDS011;64715;44.760;37.678;2022-11-20T05:09:24;28.33;;;11.33;;
74922;SDS011;64715;44.760;37.678;2022-11-20T05:10:25;29.65;;;11.82;;
74922;SDS011;64715;44.760;37.678;2022-11-20T05:11:28;31.25;;;14.98;;
74922;SDS011;64715;44.760;37.678;2022-11-20T05:12:29;28.33;;;12.05;;
74922;SDS011;64715;44.760;37.678;2022-11-20T05:13:30;30.27;;;11.15;;
74922;SDS011;64715;44.760;37.678;2022-11-20T05:14:31;29.67;;;12.23;;
74922;SDS011;64715;44.760;37.678;2022-11-20T05:15:32;33.17;;;12.00;;
74922;SDS011;64715;44.760;37.678;2022-11-20T05:16:33;47.10;;;22.23;;
74922;SDS011;64715;44.760;37.678;2022-11-20T05:17:34;35.53;;;13.80;;
74922;SDS011;64715;44.760;37.678;2022-11-20T05:18:36;25.17;;;10.32;;
74922;SDS011;64715;44.760;37.678;2022-11-20T05:19:38;27.05;;;10.07;;
74922;SDS011;64715;44.760;37.678;2022-11-20T05:20:39;26.02;;;10.18;;
74922;SDS011;64715;44.760;37.678;2022-11-20T05:21:40;27.85;;;10.30;;
74922;SDS011;64715;44.760;37.678;2022-11-20T05:22:42;26.85;;;10.80;;
74922;SDS011;64715;44.760;37.678;2022-11-20T05:23:43;26.38;;;9.90;;
74922;SDS011;64715;44.760;37.678;2022-11-20T05:24:45;25.50;;;10.27;;
74922;SDS011;64715;44.760;37.678;2022-11-20T05:25:46;24.03;;;10.43;;
74922;SDS011;64715;44.760;37.678;2022-11-20T05:26:47;25.17;;;9.40;;
74922;SDS011;64715;44.760;37.678;2022-11-20T05:27:48;26.25;;;10.05;;
74922;SDS011;64715;44.760;37.678;2022-11-20T05:28:49;24.63;;;9.77;;
74922;SDS011;64715;44.760;37.678;2022-11-20T05:29:51;21.05;;;8.80;;
74922;SDS011;64715;44.760;37.678;2022-11-20T05:30:52;21.30;;;9.18;;
74922;SDS011;64715;44.760;37.678;2022-11-20T05:31:53;22.10;;;9.00;;
74922;SDS011;64715;44.760;37.678;2022-11-20T05:32:54;28.90;;;9.65;;
74922;SDS011;64715;44.760;37.678;2022-11-20T05:33:55;26.08;;;10.05;;
74922;SDS011;64715;44.760;37.678;2022-11-20T05:34:57;22.80;;;10.05;;
74922;SDS011;64715;44.760;37.678;2022-11-20T05:35:58;25.00;;;9.20;;
74922;SDS011;64715;44.760;37.678;2022-11-20T05:36:59;23.40;;;9.55;;
74922;SDS011;64715;44.760;37.678;2022-11-20T05:38:02;20.35;;;8.40;;
74922;SDS011;64715;44.760;37.678;2022-11-20T05:39:12;20.25;;;8.63;;
74922;SDS011;64715;44.760;37.678;2022-11-20T05:40:13;20.75;;;9.02;;
74922;SDS011;64715;44.760;37.678;2022-11-20T05:41:16;24.07;;;9.63;;
74922;SDS011;64715;44.760;37.678;2022-11-20T05:42:22;20.85;;;9.18;;
74922;SDS011;64715;44.760;37.678;2022-11-20T05:43:35;37.35;;;21.20;;
74922;SDS011;64715;44.760;37.678;2022-11-20T05:44:49;31.20;;;13.38;;
74922;SDS011;64715;44.760;37.678;2022-11-20T05:46:08;27.48;;;11.82;;
74922;SDS011;64715;44.760;37.678;2022-11-20T05:47:42;26.33;;;9.43;;
74922;SDS011;64715;44.760;37.678;2022-11-20T05:48:45;22.75;;;9.02;;
74922;SDS011;64715;44.760;37.678;2022-11-20T05:49:47;31.52;;;9.75;;
74922;SDS011;64715;44.760;37.678;2022-11-20T05:50:50;24.83;;;9.20;;
74922;SDS011;64715;44.760;37.678;2022-11-20T05:51:55;24.55;;;10.02;;
74922;SDS011;64715;44.760;37.678;2022-11-20T05:52:59;24.70;;;9.93;;
74922;SDS011;64715;44.760;37.678;2022-11-20T05:54:01;22.00;;;9.60;;
74922;SDS011;64715;44.760;37.678;2022-11-20T05:55:01;23.08;;;9.80;;
74922;SDS011;64715;44.760;37.678;2022-11-20T05:56:05;23.90;;;9.73;;
74922;SDS011;64715;44.760;37.678;2022-11-20T05:57:10;24.33;;;10.73;;
74922;SDS011;64715;44.760;37.678;2022-11-20T05:58:12;27.80;;;10.35;;
74922;SDS011;64715;44.760;37.678;2022-11-20T05:59:12;20.02;;;9.00;;
74922;SDS011;64715;44.760;37.678;2022-11-20T06:00:14;21.07;;;8.53;;
74922;SDS011;64715;44.760;37.678;2022-11-20T06:01:17;20.52;;;8.15;;
74922;SDS011;64715;44.760;37.678;2022-11-20T06:02:20;20.88;;;9.23;;
74922;SDS011;64715;44.760;37.678;2022-11-20T06:03:21;21.40;;;9.13;;
74922;SDS011;64715;44.760;37.678;2022-11-20T06:04:24;23.05;;;9.18;;
74922;SDS011;64715;44.760;37.678;2022-11-20T06:05:25;23.05;;;9.35;;
74922;SDS011;64715;44.760;37.678;2022-11-20T06:06:26;24.80;;;9.30;;
74922;SDS011;64715;44.760;37.678;2022-11-20T06:07:27;25.48;;;9.57;;
74922;SDS011;64715;44.760;37.678;2022-11-20T06:08:28;26.17;;;10.30;;
74922;SDS011;64715;44.760;37.678;2022-11-20T06:09:29;24.83;;;9.63;;